Vremea acum in Targu Mures - Romania

Vrei sa afli care e starea vremii acum in Mures - Romania? Dorim sa iti furnizam starea vremii pentru Mures - Romania. Starea vremii Mures - Romania pentru astazi.

Vremea acum in Targu Mures

Temperatura: 18 °C

Se simte ca: 18 °C
Innorat: 25 %
Precipitatii: %
Presiune atmosferica: 1021 hPa
Umiditate: 83%
Vizibilitate: 10 km
Vantul bate din E cu 9 km/h

Evolutia vremii in Targu Mures pe ore

Ora: 21:00
Temperatura: °C
Sansa de precipitatii: %
Ora Descriere Temp Se simte Precipitatii Umiditate Vant
00:00Noros14.5°14°0%89%ESE 9.7 KM/H
01:00Parțial noros13.9°13.5°0%90%ESE 9 KM/H
02:00Noros13.4°13°0%90%ESE 7.9 KM/H
03:00Parțial noros13.1°12.7°0%91%ESE 7.6 KM/H
04:00Noros12.8°12.5°0%91%ESE 6.8 KM/H
05:00Parțial noros12.5°12.2°0%91%ESE 6.5 KM/H
06:00Parțial noros14.5°14.3°0%86%ESE 7.6 KM/H
07:00Parțial noros16.4°16.3°0%81%ESE 8.6 KM/H
08:00Parțial noros18.4°18.4°0%76%SE 9.7 KM/H
09:00Parțial noros19.8°19.8°0%70%SE 10.1 KM/H
10:00Parțial noros21.2°21.2°0%63%SE 10.1 KM/H
11:00Parțial noros22.6°24.7°0%57%SE 10.4 KM/H
12:00Parțial noros23.1°24.9°0%55%SE 10.4 KM/H
13:00Parțial noros23.7°25.2°0%53%ESE 10.8 KM/H
14:00Parțial noros24.2°25.4°0%51%ESE 10.8 KM/H
15:00Parțial noros24.4°25.5°0%51%ESE 11.2 KM/H
16:00Parțial noros24.5°25.6°0%51%ESE 11.2 KM/H
17:00Parțial noros24.7°25.7°0%51%ESE 11.5 KM/H
18:00Parțial noros23.9°25.2°0%55%ESE 13.3 KM/H
19:00Parțial noros23°24.7°0%59%ESE 15.5 KM/H
20:00Parțial noros22.2°24.2°0%63%ESE 17.3 KM/H
21:00Parțial noros21.5°21.5°0%64%E 16.9 KM/H
22:00Parțial noros20.9°20.9°0%65%E 16.6 KM/H
23:00Parțial noros20.2°20.2°0%65%E 16.2 KM/H